createdAt,value
2023-04-15T00:01:36.517Z,70.01
2023-04-15T00:04:00.378Z,69.51
2023-04-15T00:06:24.197Z,69.27
2023-04-15T00:08:48.171Z,69.50
2023-04-15T00:11:11.947Z,69.73
2023-04-15T00:13:35.469Z,69.79
2023-04-15T00:15:59.040Z,69.51
2023-04-15T00:18:23.492Z,69.99
2023-04-15T00:20:47.153Z,69.93
2023-04-15T00:23:10.674Z,69.78
2023-04-15T00:25:34.401Z,70.55
2023-04-15T00:27:58.334Z,70.46
2023-04-15T00:30:23.224Z,71.22
2023-04-15T00:32:46.832Z,71.70
2023-04-15T00:35:11.629Z,72.35
2023-04-15T00:37:36.252Z,73.13
2023-04-15T00:39:59.953Z,73.16
2023-04-15T00:42:24.648Z,72.90
2023-04-15T00:44:48.106Z,73.34
2023-04-15T00:47:12.484Z,73.74
2023-04-15T00:49:35.963Z,73.91
2023-04-15T00:51:59.632Z,73.80
2023-04-15T00:54:23.856Z,74.04
2023-04-15T00:56:56.079Z,74.24
2023-04-15T00:59:23.020Z,74.73
2023-04-15T01:01:47.891Z,75.33
2023-04-15T01:04:12.567Z,74.74
2023-04-15T01:06:36.352Z,75.30
2023-04-15T01:09:02.741Z,75.07
2023-04-15T01:11:27.707Z,74.92
2023-04-15T01:13:52.094Z,74.74
2023-04-15T01:16:16.840Z,75.18
2023-04-15T01:18:41.033Z,75.07
2023-04-15T01:21:06.363Z,75.56
2023-04-15T01:23:36.287Z,75.61
2023-04-15T01:26:21.676Z,76.15
2023-04-15T01:28:56.882Z,75.95
2023-04-15T01:31:21.383Z,76.31
2023-04-15T01:33:46.496Z,76.83
2023-04-15T01:36:13.991Z,76.77
2023-04-15T01:38:39.697Z,76.94
2023-04-15T01:41:04.254Z,77.39
2023-04-15T01:43:30.188Z,77.59
2023-04-15T01:45:53.729Z,78.20
2023-04-15T01:48:18.237Z,78.28
2023-04-15T01:50:42.123Z,78.59
2023-04-15T01:53:09.116Z,78.77
2023-04-15T01:55:45.203Z,79.24
2023-04-15T01:58:11.765Z,80.04
2023-04-15T02:00:35.189Z,80.25
2023-04-15T02:03:01.834Z,80.56
2023-04-15T02:05:45.811Z,81.49
2023-04-15T02:08:20.634Z,81.72
2023-04-15T02:10:47.601Z,81.98
2023-04-15T02:13:14.347Z,83.13
2023-04-15T02:15:37.983Z,82.81
2023-04-15T02:18:11.006Z,82.93
2023-04-15T02:20:35.805Z,83.70
2023-04-15T02:22:59.685Z,83.69
2023-04-15T02:25:23.312Z,83.49
2023-04-15T02:27:46.904Z,83.72
2023-04-15T02:30:11.368Z,83.92
2023-04-15T02:32:34.946Z,84.06
2023-04-15T02:35:03.486Z,84.55
2023-04-15T02:37:31.504Z,84.50
2023-04-15T02:39:54.949Z,84.80
2023-04-15T02:42:20.954Z,85.03
2023-04-15T02:44:44.948Z,84.99
2023-04-15T02:47:10.079Z,85.18
2023-04-15T02:49:33.448Z,84.92
2023-04-15T02:51:57.730Z,85.26
2023-04-15T02:54:22.306Z,85.51
2023-04-15T02:56:49.387Z,85.38
2023-04-15T02:59:13.324Z,85.31
2023-04-15T03:01:36.793Z,85.49
2023-04-15T03:04:00.545Z,85.64
2023-04-15T03:06:24.413Z,85.33
2023-04-15T03:08:47.919Z,85.08
2023-04-15T03:11:12.276Z,85.17
2023-04-15T03:13:35.783Z,85.52
2023-04-15T03:16:07.406Z,85.78
2023-04-15T03:18:31.575Z,85.66
2023-04-15T03:20:57.326Z,85.35
2023-04-15T03:23:21.151Z,85.37
2023-04-15T03:25:46.262Z,85.62
2023-04-15T03:28:11.604Z,85.41
2023-04-15T03:30:35.438Z,85.51
2023-04-15T03:32:58.884Z,85.77
2023-04-15T03:35:25.832Z,85.88
2023-04-15T03:37:49.508Z,85.36
2023-04-15T03:40:15.229Z,85.51
2023-04-15T03:42:39.006Z,86.10
2023-04-15T03:45:02.913Z,85.79
2023-04-15T03:47:26.568Z,85.37
2023-04-15T03:50:03.680Z,86.12
2023-04-15T03:52:27.176Z,85.82
2023-04-15T03:54:50.881Z,85.74
2023-04-15T03:57:14.391Z,85.80
2023-04-15T03:59:37.811Z,85.79
2023-04-15T04:02:01.556Z,85.58
2023-04-15T04:04:27.857Z,85.89
2023-04-15T04:06:51.455Z,85.76
2023-04-15T04:09:15.030Z,86.18
2023-04-15T04:11:38.490Z,85.84
2023-04-15T04:14:02.124Z,86.30
2023-04-15T04:16:28.518Z,86.39
2023-04-15T04:18:52.254Z,85.83
2023-04-15T04:21:16.029Z,86.29
2023-04-15T04:23:39.494Z,86.72
2023-04-15T04:26:03.160Z,86.24
2023-04-15T04:28:26.933Z,86.15
2023-04-15T04:30:50.515Z,86.52
2023-04-15T04:33:13.912Z,87.14
2023-04-15T04:35:57.693Z,87.38
2023-04-15T04:38:21.372Z,86.90
2023-04-15T04:40:47.429Z,87.51
2023-04-15T04:43:11.182Z,87.67
2023-04-15T04:45:37.766Z,87.82
2023-04-15T04:48:21.225Z,87.85
2023-04-15T04:50:46.635Z,88.09
2023-04-15T04:53:13.017Z,88.33
2023-04-15T04:55:36.740Z,88.04
2023-04-15T04:58:00.817Z,88.67
2023-04-15T05:00:24.795Z,88.08
2023-04-15T05:02:48.597Z,88.63
2023-04-15T05:05:13.069Z,88.51
2023-04-15T05:07:36.569Z,88.87
2023-04-15T05:09:59.981Z,88.31
2023-04-15T05:12:23.408Z,88.09
2023-04-15T05:14:49.882Z,88.82
2023-04-15T05:17:13.586Z,88.56
2023-04-15T05:19:37.237Z,88.49
2023-04-15T05:22:05.665Z,88.70
2023-04-15T05:24:29.404Z,88.93
2023-04-15T05:26:53.036Z,88.38
2023-04-15T05:29:16.703Z,88.67
2023-04-15T05:31:40.422Z,88.77
2023-04-15T05:34:05.147Z,88.92
2023-04-15T05:36:28.854Z,89.11
2023-04-15T05:38:52.303Z,88.81
2023-04-15T05:41:19.610Z,88.86
2023-04-15T05:43:43.628Z,88.62
2023-04-15T05:46:08.158Z,88.89
2023-04-15T05:48:31.576Z,89.54
2023-04-15T05:50:58.123Z,89.44
2023-04-15T05:53:21.819Z,89.81
2023-04-15T05:55:45.536Z,89.62
2023-04-15T05:58:08.976Z,89.50
2023-04-15T06:00:33.208Z,89.52
2023-04-15T06:02:59.384Z,90.06
2023-04-15T06:05:23.662Z,89.79
2023-04-15T06:07:48.601Z,89.83
2023-04-15T06:10:12.693Z,89.88
2023-04-15T06:12:36.153Z,90.31
2023-04-15T06:15:00.241Z,90.54
2023-04-15T06:17:24.979Z,90.60
2023-04-15T06:19:49.816Z,90.33
2023-04-15T06:22:13.408Z,90.38
2023-04-15T06:24:37.207Z,91.21
2023-04-15T06:27:09.483Z,90.88
2023-04-15T06:29:33.056Z,91.30
2023-04-15T06:32:04.043Z,91.07
2023-04-15T06:34:27.608Z,90.75
2023-04-15T06:36:51.220Z,90.82
2023-04-15T06:39:15.141Z,90.74
2023-04-15T06:41:38.632Z,91.17
2023-04-15T06:44:02.210Z,90.90
2023-04-15T06:46:26.318Z,90.60
2023-04-15T06:48:50.502Z,91.19
2023-04-15T06:51:14.037Z,91.09
2023-04-15T06:53:40.418Z,91.44
2023-04-15T06:56:02.968Z,91.28
2023-04-15T06:58:26.432Z,91.85
2023-04-15T07:00:50.630Z,91.89
2023-04-15T07:03:14.523Z,91.35
2023-04-15T07:05:38.187Z,91.38
2023-04-15T07:08:04.626Z,91.52
2023-04-15T07:10:31.238Z,91.30
2023-04-15T07:12:55.020Z,91.33
2023-04-15T07:15:18.405Z,91.31
2023-04-15T07:17:42.589Z,91.58
2023-04-15T07:20:08.547Z,91.26
2023-04-15T07:22:32.728Z,91.28
2023-04-15T07:24:56.086Z,91.74
2023-04-15T07:27:19.676Z,91.20
2023-04-15T07:29:43.368Z,91.15
2023-04-15T07:32:07.369Z,90.98
2023-04-15T07:34:33.901Z,91.21
2023-04-15T07:36:57.606Z,91.36
2023-04-15T07:39:21.700Z,91.32
2023-04-15T07:41:45.977Z,91.04
2023-04-15T07:44:09.938Z,91.28
2023-04-15T07:46:33.613Z,91.21
2023-04-15T07:48:59.500Z,91.50
2023-04-15T07:51:32.328Z,91.54
2023-04-15T07:53:56.013Z,92.22
2023-04-15T07:56:19.790Z,92.53
2023-04-15T07:58:43.179Z,91.46
2023-04-15T08:01:07.207Z,90.87
2023-04-15T08:03:42.576Z,90.71
2023-04-15T08:06:06.660Z,90.53
2023-04-15T08:08:50.170Z,90.74
2023-04-15T08:11:13.782Z,90.42
2023-04-15T08:13:37.282Z,90.71
2023-04-15T08:16:19.911Z,90.79
2023-04-15T08:18:48.852Z,90.70
2023-04-15T08:21:33.321Z,90.76
2023-04-15T08:23:57.157Z,90.81
2023-04-15T08:26:21.518Z,90.76
2023-04-15T08:29:02.102Z,90.61
2023-04-15T08:31:29.157Z,90.74
2023-04-15T08:33:58.839Z,90.73
2023-04-15T08:36:26.948Z,90.47
2023-04-15T08:38:52.711Z,90.41
2023-04-15T08:41:23.090Z,90.66
2023-04-15T08:43:54.418Z,90.39
2023-04-15T08:46:34.111Z,90.29
2023-04-15T08:48:59.090Z,90.06
2023-04-15T08:51:23.891Z,90.15
2023-04-15T08:54:10.332Z,89.93
2023-04-15T08:56:54.354Z,90.04
2023-04-15T08:59:21.371Z,90.23
2023-04-15T09:01:45.379Z,89.87
2023-04-15T09:04:20.784Z,89.98
2023-04-15T09:06:56.647Z,90.08
2023-04-15T09:09:20.300Z,90.20
2023-04-15T09:11:47.001Z,90.12
2023-04-15T09:14:11.642Z,90.02
2023-04-15T09:16:59.205Z,89.71
2023-04-15T09:19:33.966Z,89.61
2023-04-15T09:21:59.290Z,89.60
2023-04-15T09:24:23.521Z,89.49
2023-04-15T09:27:07.970Z,89.65
2023-04-15T09:29:42.236Z,89.25
2023-04-15T09:32:13.481Z,89.51
2023-04-15T09:34:57.351Z,89.60
2023-04-15T09:37:36.051Z,89.63
2023-04-15T09:40:00.058Z,89.48
2023-04-15T09:42:33.080Z,89.41
2023-04-15T09:45:16.903Z,89.68
2023-04-15T09:47:50.951Z,89.56
2023-04-15T09:50:14.957Z,89.73
2023-04-15T09:52:43.333Z,89.55
2023-04-15T09:55:10.057Z,89.70
2023-04-15T09:57:55.941Z,89.76
2023-04-15T10:00:22.320Z,89.49
2023-04-15T10:02:49.289Z,89.62
2023-04-15T10:05:16.420Z,89.49
2023-04-15T10:07:40.829Z,89.71
2023-04-15T10:10:25.181Z,89.42
2023-04-15T10:13:10.611Z,89.35
2023-04-15T10:15:35.934Z,89.47
2023-04-15T10:18:10.132Z,89.37
2023-04-15T10:20:55.065Z,89.09
2023-04-15T10:23:28.583Z,89.35
2023-04-15T10:26:00.518Z,89.29
2023-04-15T10:28:24.526Z,89.11
2023-04-15T10:30:49.640Z,89.09
2023-04-15T10:33:24.465Z,88.98
2023-04-15T10:36:08.065Z,88.99
2023-04-15T10:38:42.879Z,89.43
2023-04-15T10:41:30.478Z,89.08
2023-04-15T10:44:05.812Z,88.68
2023-04-15T10:46:40.778Z,88.51
2023-04-15T10:49:10.453Z,88.74
2023-04-15T10:51:58.814Z,88.63
2023-04-15T10:54:33.114Z,89.01
2023-04-15T10:57:09.138Z,88.97
2023-04-15T10:59:33.432Z,88.72
2023-04-15T11:02:02.432Z,88.83
2023-04-15T11:04:55.293Z,88.78
2023-04-15T11:07:40.588Z,88.56
2023-04-15T11:10:25.274Z,88.48
2023-04-15T11:13:17.156Z,88.69
2023-04-15T11:16:02.392Z,88.92
2023-04-15T11:18:55.386Z,89.01
2023-04-15T11:21:19.674Z,89.25
2023-04-15T11:23:50.728Z,88.90
2023-04-15T11:26:16.860Z,89.14
2023-04-15T11:28:50.451Z,89.21
2023-04-15T11:31:29.104Z,88.61
2023-04-15T11:33:58.449Z,88.83
2023-04-15T11:36:29.194Z,88.63
2023-04-15T11:39:06.852Z,88.81
2023-04-15T11:41:30.556Z,88.63
2023-04-15T11:43:56.198Z,88.56
2023-04-15T11:46:21.378Z,88.55
2023-04-15T11:48:46.321Z,88.50
2023-04-15T11:51:09.996Z,88.55
2023-04-15T11:53:41.509Z,88.69
2023-04-15T11:56:26.816Z,88.73
2023-04-15T11:59:10.915Z,88.79
2023-04-15T12:01:35.787Z,89.01
2023-04-15T12:04:14.170Z,88.98
2023-04-15T12:07:06.199Z,89.80
2023-04-15T12:09:39.391Z,90.32
2023-04-15T12:12:26.568Z,89.01
2023-04-15T12:14:59.388Z,87.82
2023-04-15T12:17:50.997Z,86.09
2023-04-15T12:20:26.446Z,84.87
2023-04-15T12:22:50.108Z,84.52
2023-04-15T12:25:14.208Z,84.83
2023-04-15T12:27:37.854Z,85.22
2023-04-15T12:30:07.338Z,84.81
2023-04-15T12:32:42.171Z,84.70
2023-04-15T12:35:08.589Z,84.63
2023-04-15T12:37:32.174Z,84.92
2023-04-15T12:39:55.748Z,84.99
2023-04-15T12:42:40.092Z,85.35
2023-04-15T12:45:20.971Z,85.42
2023-04-15T12:47:56.381Z,85.80
2023-04-15T12:50:20.157Z,85.86
2023-04-15T12:53:03.180Z,85.77
2023-04-15T12:55:36.323Z,85.67
2023-04-15T12:58:03.151Z,85.56
2023-04-15T13:00:33.368Z,84.91
2023-04-15T13:03:17.558Z,84.53
2023-04-15T13:05:41.175Z,84.12
2023-04-15T13:08:25.855Z,83.40
2023-04-15T13:10:59.707Z,82.86
2023-04-15T13:13:34.390Z,83.17
2023-04-15T13:15:58.378Z,83.19
2023-04-15T13:18:45.288Z,82.18
2023-04-15T13:21:29.166Z,81.11
2023-04-15T13:24:13.315Z,80.23
2023-04-15T13:26:50.526Z,79.74
2023-04-15T13:29:23.054Z,79.13
2023-04-15T13:31:58.110Z,79.22
2023-04-15T13:34:31.111Z,78.90
2023-04-15T13:37:13.399Z,78.96
2023-04-15T13:39:37.129Z,78.70
2023-04-15T13:42:08.477Z,78.86
2023-04-15T13:44:52.922Z,79.13
2023-04-15T13:47:24.013Z,79.59
2023-04-15T13:49:59.060Z,79.04
2023-04-15T13:52:30.506Z,78.88
2023-04-15T13:55:07.249Z,78.86
2023-04-15T13:57:37.873Z,78.80
2023-04-15T14:00:01.663Z,78.09
2023-04-15T14:02:25.410Z,77.27
2023-04-15T14:04:50.717Z,77.55
2023-04-15T14:07:23.897Z,78.00
2023-04-15T14:10:09.631Z,78.49
2023-04-15T14:12:53.506Z,78.88
2023-04-15T14:15:37.383Z,78.52
2023-04-15T14:18:21.418Z,78.38
2023-04-15T14:20:45.179Z,78.62
2023-04-15T14:23:11.312Z,78.85
2023-04-15T14:25:55.264Z,78.96
2023-04-15T14:28:39.497Z,79.02
2023-04-15T14:31:23.409Z,78.89
2023-04-15T14:33:50.080Z,77.90
2023-04-15T14:36:13.538Z,77.69
2023-04-15T14:38:39.144Z,77.47
2023-04-15T14:41:02.716Z,77.74
2023-04-15T14:43:32.575Z,77.53
2023-04-15T14:45:59.811Z,77.80
2023-04-15T14:48:26.261Z,77.55
2023-04-15T14:50:53.216Z,77.79
2023-04-15T14:53:16.791Z,77.67
2023-04-15T14:55:40.614Z,77.27
2023-04-15T14:58:08.692Z,77.02
2023-04-15T15:00:32.290Z,77.12
2023-04-15T15:02:55.879Z,77.20
2023-04-15T15:05:23.074Z,76.98
2023-04-15T15:07:46.738Z,76.46
2023-04-15T15:10:13.401Z,75.94
2023-04-15T15:12:36.944Z,75.85
2023-04-15T15:15:04.896Z,75.90
2023-04-15T15:17:33.098Z,75.84
2023-04-15T15:19:59.670Z,75.49
2023-04-15T15:22:23.400Z,75.72
2023-04-15T15:24:47.060Z,75.95
2023-04-15T15:27:10.806Z,76.12
2023-04-15T15:29:38.321Z,76.45
2023-04-15T15:32:05.419Z,76.53
2023-04-15T15:34:28.894Z,76.43
2023-04-15T15:36:52.727Z,76.39
2023-04-15T15:39:28.440Z,76.37
2023-04-15T15:41:52.210Z,76.35
2023-04-15T15:44:18.920Z,75.89
2023-04-15T15:46:42.514Z,75.90
2023-04-15T15:49:27.679Z,75.95
2023-04-15T15:51:51.272Z,76.22
2023-04-15T15:54:15.030Z,76.37
2023-04-15T15:56:39.088Z,76.37
2023-04-15T15:59:04.518Z,76.35
2023-04-15T16:01:30.931Z,76.33
2023-04-15T16:03:55.040Z,76.32
2023-04-15T16:06:18.678Z,76.29
2023-04-15T16:08:42.473Z,76.40
2023-04-15T16:11:06.502Z,76.39
2023-04-15T16:13:29.938Z,76.24
2023-04-15T16:15:53.453Z,76.27
2023-04-15T16:18:20.321Z,76.16
2023-04-15T16:20:46.993Z,76.10
2023-04-15T16:23:15.048Z,76.16
2023-04-15T16:25:44.065Z,76.09
2023-04-15T16:28:18.562Z,75.92
2023-04-15T16:30:49.236Z,75.83
2023-04-15T16:33:12.825Z,76.03
2023-04-15T16:35:56.588Z,75.99
2023-04-15T16:38:20.252Z,75.86
2023-04-15T16:40:43.857Z,75.71
2023-04-15T16:43:10.658Z,75.53
2023-04-15T16:45:36.590Z,75.60
2023-04-15T16:48:00.400Z,75.64
2023-04-15T16:50:27.792Z,75.85
2023-04-15T16:52:55.154Z,75.96
2023-04-15T16:55:40.216Z,76.23
2023-04-15T16:58:08.411Z,76.41
2023-04-15T17:00:32.397Z,76.67
2023-04-15T17:02:59.962Z,76.65
2023-04-15T17:05:23.979Z,76.85
2023-04-15T17:07:47.775Z,77.06
2023-04-15T17:10:13.670Z,77.28
2023-04-15T17:12:58.996Z,77.47
2023-04-15T17:15:25.960Z,77.72
2023-04-15T17:18:01.372Z,77.69
2023-04-15T17:20:25.904Z,77.85
2023-04-15T17:23:09.900Z,78.10
2023-04-15T17:25:42.477Z,78.36
2023-04-15T17:28:06.486Z,78.37
2023-04-15T17:30:32.926Z,78.57
2023-04-15T17:33:02.328Z,78.60
2023-04-15T17:35:26.162Z,78.78
2023-04-15T17:37:59.277Z,78.88
2023-04-15T17:40:22.809Z,78.93
2023-04-15T17:43:00.718Z,79.07
2023-04-15T17:45:27.050Z,79.17
2023-04-15T17:48:03.219Z,79.33
2023-04-15T17:50:27.184Z,79.32
2023-04-15T17:53:00.074Z,79.26
2023-04-15T17:55:44.118Z,79.54
2023-04-15T17:58:07.904Z,79.78
2023-04-15T18:00:40.463Z,79.94
2023-04-15T18:03:09.214Z,79.98
2023-04-15T18:05:55.354Z,79.93
2023-04-15T18:08:22.189Z,79.82
2023-04-15T18:10:45.569Z,80.03
2023-04-15T18:13:09.343Z,79.99
2023-04-15T18:15:33.206Z,80.15
2023-04-15T18:17:57.019Z,79.89
2023-04-15T18:20:21.351Z,80.24
2023-04-15T18:22:45.000Z,80.14
2023-04-15T18:25:19.126Z,79.97
2023-04-15T18:27:46.424Z,79.99
2023-04-15T18:30:23.804Z,79.98
2023-04-15T18:32:47.705Z,79.95
2023-04-15T18:35:22.247Z,80.00
2023-04-15T18:37:46.192Z,79.89
2023-04-15T18:40:20.386Z,79.90
2023-04-15T18:42:51.920Z,79.69
2023-04-15T18:45:15.642Z,79.63
2023-04-15T18:47:42.523Z,79.50
2023-04-15T18:50:26.681Z,79.46
2023-04-15T18:53:10.829Z,79.45
2023-04-15T18:55:34.913Z,79.52
2023-04-15T18:58:19.317Z,79.69
2023-04-15T19:00:45.525Z,79.89
2023-04-15T19:03:12.254Z,80.06
2023-04-15T19:05:56.712Z,80.07
2023-04-15T19:08:22.927Z,80.09
2023-04-15T19:11:06.867Z,80.35
2023-04-15T19:13:32.905Z,80.22
2023-04-15T19:16:04.523Z,80.19
2023-04-15T19:18:28.306Z,80.19
2023-04-15T19:21:12.954Z,80.17
2023-04-15T19:23:47.930Z,80.17
2023-04-15T19:26:31.653Z,80.24
2023-04-15T19:29:15.794Z,80.26
2023-04-15T19:31:39.479Z,80.26
2023-04-15T19:34:24.736Z,80.27
2023-04-15T19:36:48.433Z,80.23
2023-04-15T19:39:33.224Z,80.24
2023-04-15T19:42:05.624Z,80.36
2023-04-15T19:44:49.829Z,80.51
2023-04-15T19:47:24.227Z,80.31
2023-04-15T19:50:11.240Z,80.32
2023-04-15T19:52:54.949Z,80.55
2023-04-15T19:55:19.113Z,80.43
2023-04-15T19:57:42.706Z,80.34
2023-04-15T20:00:11.400Z,80.41
2023-04-15T20:02:56.207Z,80.64
2023-04-15T20:05:22.749Z,80.53
2023-04-15T20:07:48.154Z,80.68
2023-04-15T20:10:12.822Z,80.85
2023-04-15T20:12:50.299Z,80.77
2023-04-15T20:15:30.504Z,81.26
2023-04-15T20:17:54.401Z,81.10
2023-04-15T20:20:18.242Z,81.09
2023-04-15T20:22:52.935Z,81.00
2023-04-15T20:25:36.965Z,81.26
2023-04-15T20:28:22.856Z,81.16
2023-04-15T20:30:47.056Z,81.08
2023-04-15T20:33:31.220Z,81.31
2023-04-15T20:35:58.240Z,81.21
2023-04-15T20:38:21.858Z,81.35
2023-04-15T20:41:06.257Z,81.22
2023-04-15T20:43:51.105Z,81.14
2023-04-15T20:46:25.898Z,81.34
2023-04-15T20:48:54.996Z,81.40
2023-04-15T20:51:38.950Z,81.51
2023-04-15T20:54:22.689Z,81.64
2023-04-15T20:57:06.686Z,81.64
2023-04-15T20:59:42.813Z,81.73
2023-04-15T21:02:06.549Z,81.95
2023-04-15T21:04:30.435Z,81.61
2023-04-15T21:07:06.574Z,81.88
2023-04-15T21:09:30.296Z,81.77
2023-04-15T21:12:02.324Z,81.86
2023-04-15T21:14:29.051Z,81.84
2023-04-15T21:17:13.170Z,81.67
2023-04-15T21:19:54.597Z,81.67
2023-04-15T21:22:38.571Z,81.68
2023-04-15T21:25:22.639Z,81.85
2023-04-15T21:28:06.658Z,81.77
2023-04-15T21:30:50.780Z,81.50
2023-04-15T21:33:34.948Z,81.62
2023-04-15T21:36:18.740Z,81.72
2023-04-15T21:38:45.670Z,81.86
2023-04-15T21:41:22.159Z,81.71
2023-04-15T21:44:06.216Z,81.82
2023-04-15T21:46:35.987Z,81.85
2023-04-15T21:49:11.438Z,82.09
2023-04-15T21:51:36.749Z,82.18
2023-04-15T21:54:20.598Z,82.41
2023-04-15T21:57:04.639Z,82.20
2023-04-15T21:59:48.302Z,82.23
2023-04-15T22:02:25.178Z,82.37
2023-04-15T22:05:09.412Z,82.18
2023-04-15T22:07:53.255Z,82.11
2023-04-15T22:10:38.769Z,82.28
2023-04-15T22:13:22.587Z,82.04
2023-04-15T22:16:07.671Z,82.16
2023-04-15T22:18:51.479Z,82.23
2023-04-15T22:21:27.544Z,82.04
2023-04-15T22:24:38.775Z,82.24
2023-04-15T22:27:05.052Z,82.31
2023-04-15T22:29:39.685Z,82.25
2023-04-15T22:32:08.512Z,82.28
2023-04-15T22:34:34.165Z,82.47
2023-04-15T22:36:57.966Z,82.56
2023-04-15T22:39:41.955Z,82.83
2023-04-15T22:42:08.532Z,83.26
2023-04-15T22:44:34.667Z,83.60
2023-04-15T22:47:06.621Z,83.59
2023-04-15T22:49:49.170Z,83.50
2023-04-15T22:52:30.475Z,84.01
2023-04-15T22:55:01.906Z,84.54
2023-04-15T22:57:46.144Z,84.25
2023-04-15T23:00:30.029Z,84.43
2023-04-15T23:02:56.408Z,84.42
2023-04-15T23:05:40.522Z,84.53
2023-04-15T23:08:15.883Z,84.56
2023-04-15T23:10:50.253Z,84.77
2023-04-15T23:13:35.513Z,84.54
2023-04-15T23:15:59.118Z,84.85
2023-04-15T23:18:31.311Z,84.75
2023-04-15T23:21:15.295Z,84.74
2023-04-15T23:23:59.111Z,84.80
2023-04-15T23:26:43.262Z,84.94
2023-04-15T23:29:10.132Z,85.23
2023-04-15T23:31:44.026Z,85.29
2023-04-15T23:34:12.363Z,85.39
2023-04-15T23:36:47.377Z,85.06
2023-04-15T23:39:16.456Z,85.09
2023-04-15T23:41:42.551Z,85.23
2023-04-15T23:44:26.587Z,85.27
2023-04-15T23:46:52.915Z,85.18
2023-04-15T23:49:20.532Z,85.25
2023-04-15T23:51:44.804Z,85.17
2023-04-15T23:54:19.586Z,85.22
2023-04-15T23:57:03.789Z,85.18
2023-04-15T23:59:29.564Z,85.25
